Danbury, Wisconsin
Current Conditions -  °F | °C
As of 3:55 AM on Thursday 23 Oct 2014 (Local Time) from KRZN Reporting Station
Drizzle Drizzle  
Wind Chill: 52°   Ceiling: 2100
Heat Index: 52°   Visibility: 10mi
Dew Point: 41°   Wind: 6mph
Humidity: 66%   Direction: 170°S
Pressure: 29.99"   Gusts: NA
Location:  46.01°N, 92.37°W
Report Text: KRZN 230855Z AUTO 17005KT 10SM DZ OVC021 11/05 A2999 RMK AO2 T01120051
Loading
Personal Weather Stations






























Interactive Weather Map
Tropical Storm Tracking
New forecast layout! Learn more

10-Day Weather Forecast

Advertisements
Track Severe Weather on mobile